createdAt,value
2022-08-02T00:01:49.495Z,1.20
2022-08-02T00:04:17.877Z,2.20
2022-08-02T00:06:46.294Z,1.50
2022-08-02T00:09:15.196Z,1.48
2022-08-02T00:11:45.043Z,0.80
2022-08-02T00:14:13.682Z,1.05
2022-08-02T00:16:41.995Z,1.98
2022-08-02T00:19:10.330Z,0.83
2022-08-02T00:21:38.608Z,1.43
2022-08-02T00:24:29.357Z,1.95
2022-08-02T00:29:25.306Z,1.48
2022-08-02T00:31:53.624Z,1.40
2022-08-02T00:34:29.148Z,1.47
2022-08-02T00:36:59.574Z,1.45
2022-08-02T00:39:34.665Z,1.63
2022-08-02T00:42:06.375Z,2.13
2022-08-02T00:44:34.806Z,1.65
2022-08-02T00:47:03.248Z,1.53
2022-08-02T00:49:33.026Z,1.48
2022-08-02T00:52:01.882Z,2.10
2022-08-02T00:54:30.173Z,1.85
2022-08-02T00:56:58.426Z,1.97
2022-08-02T00:59:28.096Z,2.40
2022-08-02T01:02:08.488Z,2.05
2022-08-02T01:04:36.845Z,1.95
2022-08-02T01:07:13.317Z,1.47
2022-08-02T01:09:43.230Z,2.72
2022-08-02T01:12:12.567Z,1.58
2022-08-02T01:14:44.686Z,2.25
2022-08-02T01:17:19.858Z,2.67
2022-08-02T01:19:53.258Z,3.33
2022-08-02T01:23:02.280Z,3.60
2022-08-02T01:25:54.026Z,4.75
2022-08-02T01:28:34.614Z,7.30
2022-08-02T01:31:08.408Z,6.68
2022-08-02T01:33:42.364Z,3.40
2022-08-02T01:36:14.444Z,2.85
2022-08-02T01:38:47.569Z,2.63
2022-08-02T01:41:20.305Z,2.90
2022-08-02T01:43:52.790Z,2.50
2022-08-02T01:46:22.906Z,4.75
2022-08-02T01:48:52.034Z,1.52
2022-08-02T01:54:12.779Z,2.75
2022-08-02T01:56:44.377Z,3.35
2022-08-02T01:59:17.926Z,1.73
2022-08-02T02:01:49.169Z,3.47
2022-08-02T02:04:18.708Z,2.95
2022-08-02T02:06:48.943Z,4.32
2022-08-02T02:09:18.489Z,5.20
2022-08-02T02:12:06.569Z,2.95
2022-08-02T02:14:39.619Z,2.92
2022-08-02T02:17:50.605Z,2.45
2022-08-02T02:20:00.194Z,2.80
2022-08-02T02:22:28.715Z,3.13
2022-08-02T02:24:57.054Z,1.63
2022-08-02T02:27:26.743Z,2.75
2022-08-02T02:29:57.821Z,2.53
2022-08-02T02:32:28.911Z,2.30
2022-08-02T02:34:57.983Z,2.63
2022-08-02T02:37:29.264Z,2.78
2022-08-02T02:39:59.328Z,5.18
2022-08-02T02:42:32.398Z,2.63
2022-08-02T02:45:04.315Z,3.58
2022-08-02T02:47:41.019Z,2.38
2022-08-02T02:50:12.127Z,4.07
2022-08-02T02:52:41.818Z,3.53
2022-08-02T02:55:11.500Z,3.42
2022-08-02T02:57:40.892Z,2.70
2022-08-02T03:00:13.250Z,5.68
2022-08-02T03:02:44.133Z,3.90
2022-08-02T03:05:14.274Z,2.40
2022-08-02T03:07:42.724Z,4.13
2022-08-02T03:10:12.356Z,3.83
2022-08-02T03:12:40.806Z,2.42
2022-08-02T03:15:14.287Z,2.85
2022-08-02T03:17:43.463Z,1.45
2022-08-02T03:20:14.151Z,2.90
2022-08-02T03:22:42.841Z,2.03
2022-08-02T03:25:12.469Z,1.25
2022-08-02T03:27:40.799Z,1.10
2022-08-02T03:30:12.872Z,2.15
2022-08-02T03:32:43.261Z,1.60
2022-08-02T03:35:19.859Z,1.67
2022-08-02T03:37:53.389Z,1.30
2022-08-02T03:40:22.948Z,2.38
2022-08-02T03:42:52.177Z,2.08
2022-08-02T03:45:22.176Z,2.10
2022-08-02T03:47:51.751Z,1.13
2022-08-02T03:50:23.003Z,1.50
2022-08-02T03:52:52.030Z,1.23
2022-08-02T03:55:20.571Z,1.08
2022-08-02T03:57:49.335Z,1.90
2022-08-02T04:00:22.913Z,1.20
2022-08-02T04:02:51.492Z,1.10
2022-08-02T04:05:20.248Z,1.30
2022-08-02T04:08:03.594Z,3.47
2022-08-02T04:10:51.619Z,1.23
2022-08-02T04:13:24.852Z,1.52
2022-08-02T04:16:00.731Z,1.30
2022-08-02T04:18:33.524Z,2.25
2022-08-02T04:21:06.222Z,1.20
2022-08-02T04:23:37.064Z,1.30
2022-08-02T04:26:08.613Z,1.52
2022-08-02T04:28:39.837Z,1.30
2022-08-02T04:31:10.175Z,1.58
2022-08-02T04:33:39.327Z,1.33
2022-08-02T04:36:08.422Z,2.67
2022-08-02T04:38:37.033Z,1.90
2022-08-02T04:41:05.296Z,1.25
2022-08-02T04:43:34.314Z,0.98
2022-08-02T04:46:03.420Z,1.25
2022-08-02T04:51:01.766Z,1.63
2022-08-02T04:53:29.977Z,1.40
2022-08-02T04:55:58.263Z,1.63
2022-08-02T04:58:41.760Z,1.70
2022-08-02T05:01:10.230Z,1.63
2022-08-02T05:03:39.997Z,1.52
2022-08-02T05:06:19.271Z,1.60
2022-08-02T05:08:52.799Z,1.58
2022-08-02T05:11:25.716Z,1.88
2022-08-02T05:14:04.679Z,1.50
2022-08-02T05:16:33.012Z,1.50
2022-08-02T05:19:03.162Z,1.60
2022-08-02T05:21:32.102Z,1.23
2022-08-02T05:24:00.470Z,3.75
2022-08-02T05:26:28.813Z,2.67
2022-08-02T05:28:57.134Z,2.28
2022-08-02T05:31:25.417Z,2.87
2022-08-02T05:33:53.931Z,1.50
2022-08-02T05:36:23.798Z,3.13
2022-08-02T05:38:53.057Z,1.40
2022-08-02T05:41:28.135Z,1.60
2022-08-02T05:43:56.394Z,1.73
2022-08-02T05:46:24.770Z,1.40
2022-08-02T05:48:53.161Z,2.53
2022-08-02T05:51:29.939Z,1.35
2022-08-02T05:54:10.330Z,3.38
2022-08-02T05:56:47.040Z,1.58
2022-08-02T05:59:21.609Z,2.78
2022-08-02T06:01:54.875Z,1.75
2022-08-02T06:04:27.123Z,1.30
2022-08-02T06:07:02.191Z,2.78
2022-08-02T06:09:30.831Z,1.27
2022-08-02T06:12:02.478Z,4.80
2022-08-02T06:14:33.152Z,4.60
2022-08-02T06:17:04.967Z,3.53
2022-08-02T06:19:46.953Z,3.67
2022-08-02T06:22:30.687Z,3.20
2022-08-02T06:25:50.186Z,2.90
2022-08-02T06:28:01.649Z,4.53
2022-08-02T06:30:31.156Z,4.28
2022-08-02T06:33:02.512Z,7.70
2022-08-02T06:38:06.114Z,5.00
2022-08-02T06:40:43.848Z,5.30
2022-08-02T06:43:14.262Z,5.20
2022-08-02T06:45:42.740Z,5.47
2022-08-02T06:48:11.589Z,7.80
2022-08-02T06:50:42.211Z,7.22
2022-08-02T06:53:13.031Z,8.25
2022-08-02T06:55:42.754Z,6.65
2022-08-02T06:58:13.180Z,8.07
2022-08-02T07:00:41.709Z,8.82
2022-08-02T07:03:10.202Z,10.45
2022-08-02T07:05:38.738Z,11.35
2022-08-02T07:08:07.067Z,9.68
2022-08-02T07:10:36.730Z,12.90
2022-08-02T07:13:04.995Z,8.95
2022-08-02T07:15:33.531Z,9.00
2022-08-02T07:18:01.825Z,7.60
2022-08-02T07:20:30.421Z,7.93
2022-08-02T07:22:58.810Z,7.53
2022-08-02T07:25:27.129Z,8.77
2022-08-02T07:28:23.705Z,8.20
2022-08-02T07:30:52.987Z,7.88
2022-08-02T07:33:37.709Z,8.32
2022-08-02T07:36:09.569Z,6.97
2022-08-02T07:38:40.452Z,8.43
2022-08-02T07:41:09.499Z,6.80
2022-08-02T07:43:41.083Z,8.18
2022-08-02T07:46:09.403Z,7.22
2022-08-02T07:48:37.681Z,7.03
2022-08-02T07:51:05.928Z,6.37
2022-08-02T07:53:51.189Z,5.87
2022-08-02T07:56:22.780Z,5.95
2022-08-02T07:58:52.415Z,4.33
2022-08-02T08:01:20.891Z,4.53
2022-08-02T08:03:49.222Z,6.85
2022-08-02T08:06:17.737Z,4.20
2022-08-02T08:08:46.021Z,4.73
2022-08-02T08:11:14.585Z,7.27
2022-08-02T08:13:42.877Z,9.30
2022-08-02T08:16:13.019Z,6.30
2022-08-02T08:18:41.364Z,6.93
2022-08-02T08:21:10.187Z,7.40
2022-08-02T08:23:38.598Z,3.47
2022-08-02T08:26:07.049Z,5.47
2022-08-02T08:28:37.393Z,6.07
2022-08-02T08:31:05.746Z,3.80
2022-08-02T08:33:35.692Z,6.13
2022-08-02T08:36:04.570Z,3.90
2022-08-02T08:38:32.802Z,3.65
2022-08-02T08:41:01.157Z,4.43
2022-08-02T08:43:29.490Z,3.33
2022-08-02T08:45:57.732Z,4.00
2022-08-02T08:48:31.122Z,2.58
2022-08-02T08:51:11.752Z,3.17
2022-08-02T08:53:43.754Z,3.20
2022-08-02T08:56:16.261Z,2.78
2022-08-02T08:58:46.030Z,2.03
2022-08-02T09:01:15.208Z,2.00
2022-08-02T09:03:43.960Z,2.65
2022-08-02T09:06:13.643Z,4.63
2022-08-02T09:08:41.866Z,7.85
2022-08-02T09:11:17.752Z,7.97
2022-08-02T09:13:55.115Z,8.35
2022-08-02T09:16:34.332Z,7.40
2022-08-02T09:19:07.933Z,8.88
2022-08-02T09:21:39.493Z,7.38
2022-08-02T09:24:18.501Z,6.43
2022-08-02T09:29:16.902Z,3.08
2022-08-02T09:31:49.951Z,3.17
2022-08-02T09:34:19.769Z,5.82
2022-08-02T09:36:54.317Z,3.17
2022-08-02T09:39:26.511Z,3.03
2022-08-02T09:42:10.636Z,2.20
2022-08-02T09:44:39.508Z,2.28
2022-08-02T09:47:16.734Z,4.00
2022-08-02T09:49:52.546Z,3.13
2022-08-02T09:52:37.182Z,2.67
2022-08-02T09:55:13.498Z,2.20
2022-08-02T09:57:42.031Z,4.70
2022-08-02T10:00:15.068Z,2.15
2022-08-02T10:03:07.047Z,2.30
2022-08-02T10:05:55.546Z,2.40
2022-08-02T10:08:26.568Z,4.28
2022-08-02T10:11:00.634Z,2.13
2022-08-02T10:13:33.285Z,2.83
2022-08-02T10:16:03.635Z,2.30
2022-08-02T10:18:41.063Z,2.42
2022-08-02T10:21:14.598Z,2.35
2022-08-02T10:23:46.397Z,2.40
2022-08-02T10:26:18.134Z,2.17
2022-08-02T10:28:50.027Z,2.47
2022-08-02T10:31:22.145Z,2.38
2022-08-02T10:33:53.562Z,2.10
2022-08-02T10:36:23.776Z,2.60
2022-08-02T10:38:54.694Z,2.33
2022-08-02T10:41:44.732Z,3.05
2022-08-02T10:44:28.924Z,2.65
2022-08-02T10:47:23.622Z,2.88
2022-08-02T10:49:54.150Z,2.78
2022-08-02T10:52:23.776Z,2.90
2022-08-02T10:54:57.335Z,2.85
2022-08-02T10:57:27.208Z,2.75
2022-08-02T10:59:58.821Z,3.25
2022-08-02T11:02:44.244Z,2.88
2022-08-02T11:05:17.966Z,2.65
2022-08-02T11:07:49.672Z,3.33
2022-08-02T11:10:41.048Z,3.25
2022-08-02T11:13:14.161Z,2.92
2022-08-02T11:16:01.634Z,2.90
2022-08-02T11:19:06.561Z,2.78
2022-08-02T11:21:37.545Z,3.38
2022-08-02T11:24:31.516Z,2.85
2022-08-02T11:27:03.255Z,2.80
2022-08-02T11:29:38.588Z,2.63
2022-08-02T11:32:09.184Z,2.88
2022-08-02T11:34:40.331Z,3.13
2022-08-02T11:37:08.829Z,2.40
2022-08-02T11:39:37.063Z,2.95
2022-08-02T11:42:06.992Z,2.63
2022-08-02T11:44:42.715Z,2.95
2022-08-02T11:47:11.169Z,2.83
2022-08-02T11:49:39.719Z,2.92
2022-08-02T11:52:11.537Z,2.90
2022-08-02T11:54:42.106Z,3.15
2022-08-02T11:57:21.244Z,4.65
2022-08-02T11:59:51.229Z,2.65
2022-08-02T12:02:21.274Z,2.88
2022-08-02T12:05:00.590Z,3.38
2022-08-02T12:07:35.442Z,5.18
2022-08-02T12:10:07.578Z,5.80
2022-08-02T12:12:48.936Z,5.00
2022-08-02T12:15:30.299Z,4.30
2022-08-02T12:18:16.527Z,4.35
2022-08-02T12:20:44.904Z,4.45
2022-08-02T12:23:13.281Z,4.33
2022-08-02T12:25:41.668Z,4.47
2022-08-02T12:28:22.619Z,3.53
2022-08-02T12:30:53.408Z,3.88
2022-08-02T12:33:23.595Z,3.75
2022-08-02T12:35:52.141Z,4.07
2022-08-02T12:38:20.790Z,3.50
2022-08-02T12:40:49.632Z,6.65
2022-08-02T12:43:21.851Z,3.60
2022-08-02T12:45:53.194Z,3.28
2022-08-02T12:48:38.316Z,3.60
2022-08-02T12:51:23.239Z,3.65
2022-08-02T12:53:59.632Z,3.30
2022-08-02T12:56:30.306Z,3.50
2022-08-02T12:59:00.721Z,3.30
2022-08-02T13:01:30.262Z,3.50
2022-08-02T13:04:09.315Z,3.28
2022-08-02T13:06:45.227Z,2.90
2022-08-02T13:09:16.241Z,3.35
2022-08-02T13:11:45.504Z,3.30
2022-08-02T13:16:45.762Z,3.75
2022-08-02T13:19:15.589Z,3.60
2022-08-02T13:22:02.065Z,3.65
2022-08-02T13:24:40.569Z,3.17
2022-08-02T13:27:21.832Z,8.80
2022-08-02T13:29:52.090Z,5.35
2022-08-02T13:32:20.744Z,5.00
2022-08-02T13:34:49.456Z,4.57
2022-08-02T13:37:18.151Z,5.05
2022-08-02T13:40:05.686Z,4.82
2022-08-02T13:42:35.144Z,4.53
2022-08-02T13:45:12.545Z,5.38
2022-08-02T13:50:30.955Z,6.03
2022-08-02T13:52:59.181Z,4.93
2022-08-02T13:55:28.259Z,4.07
2022-08-02T14:00:34.721Z,4.80
2022-08-02T14:03:04.831Z,5.07
2022-08-02T14:08:18.110Z,4.38
2022-08-02T14:10:47.898Z,4.50
2022-08-02T14:13:16.585Z,4.78
2022-08-02T14:15:46.693Z,5.18
2022-08-02T14:18:15.619Z,5.25
2022-08-02T14:20:45.488Z,4.50
2022-08-02T14:23:13.924Z,5.22
2022-08-02T14:25:42.435Z,5.30
2022-08-02T14:28:10.669Z,6.85
2022-08-02T14:30:39.082Z,7.13
2022-08-02T14:33:08.982Z,6.10
2022-08-02T14:35:37.461Z,5.60
2022-08-02T14:38:05.970Z,6.20
2022-08-02T14:40:34.240Z,5.88
2022-08-02T14:43:03.376Z,5.97
2022-08-02T14:48:12.319Z,5.93
2022-08-02T14:50:40.871Z,5.35
2022-08-02T14:53:12.069Z,5.13
2022-08-02T14:55:42.650Z,5.72
2022-08-02T14:58:11.422Z,8.85
2022-08-02T15:00:41.302Z,4.90
2022-08-02T15:03:12.463Z,4.78
2022-08-02T15:05:41.272Z,5.10
2022-08-02T15:08:09.790Z,5.20
2022-08-02T15:10:38.072Z,5.22
2022-08-02T15:13:06.261Z,5.87
2022-08-02T15:15:42.212Z,4.55
2022-08-02T15:18:14.217Z,4.90
2022-08-02T15:20:45.384Z,4.80
2022-08-02T15:23:34.882Z,5.20
2022-08-02T15:26:06.795Z,4.68
2022-08-02T15:28:35.661Z,4.35
2022-08-02T15:31:04.155Z,4.53
2022-08-02T15:33:33.947Z,4.97
2022-08-02T15:36:02.419Z,4.53
2022-08-02T15:38:30.889Z,4.43
2022-08-02T15:40:59.402Z,4.60
2022-08-02T15:43:27.799Z,4.57
2022-08-02T15:45:56.054Z,4.60
2022-08-02T15:48:24.384Z,4.93
2022-08-02T15:50:54.171Z,5.03
2022-08-02T15:53:22.533Z,4.50
2022-08-02T15:55:52.627Z,4.73
2022-08-02T15:58:44.296Z,3.90
2022-08-02T16:01:13.353Z,4.32
2022-08-02T16:03:41.661Z,4.72
2022-08-02T16:06:12.136Z,5.33
2022-08-02T16:08:44.638Z,4.32
2022-08-02T16:11:22.333Z,5.18
2022-08-02T16:13:56.852Z,4.35
2022-08-02T16:16:26.741Z,4.57
2022-08-02T16:18:55.280Z,4.20
2022-08-02T16:21:25.835Z,4.60
2022-08-02T16:23:59.556Z,4.30
2022-08-02T16:26:32.119Z,5.00
2022-08-02T16:29:01.246Z,4.15
2022-08-02T16:33:57.799Z,3.95
2022-08-02T16:36:28.236Z,4.30
2022-08-02T16:38:57.523Z,4.13
2022-08-02T16:41:52.193Z,4.30
2022-08-02T16:44:14.315Z,3.72
2022-08-02T16:46:44.968Z,4.57
2022-08-02T16:50:04.956Z,4.65
2022-08-02T16:52:03.936Z,4.47
2022-08-02T16:54:32.363Z,4.40
2022-08-02T16:57:00.646Z,3.85
2022-08-02T16:59:42.043Z,4.10
2022-08-02T17:02:18.283Z,4.38
2022-08-02T17:04:47.965Z,5.00
2022-08-02T17:08:07.840Z,4.32
2022-08-02T17:10:09.169Z,4.28
2022-08-02T17:12:38.962Z,4.00
2022-08-02T17:16:08.267Z,4.35
2022-08-02T17:17:57.948Z,4.47
2022-08-02T17:20:26.233Z,4.70
2022-08-02T17:22:56.004Z,4.93
2022-08-02T17:25:28.955Z,4.95
2022-08-02T17:28:00.537Z,5.60
2022-08-02T17:30:29.597Z,5.25
2022-08-02T17:32:59.540Z,5.60
2022-08-02T17:35:40.072Z,5.07
2022-08-02T17:38:26.017Z,5.40
2022-08-02T17:40:55.780Z,5.53
2022-08-02T17:43:25.932Z,4.68
2022-08-02T17:46:00.957Z,5.75
2022-08-02T17:48:55.167Z,4.70
2022-08-02T17:52:16.040Z,5.03
2022-08-02T17:54:14.682Z,4.55
2022-08-02T17:56:47.696Z,6.82
2022-08-02T17:59:20.483Z,5.13
2022-08-02T18:01:52.907Z,6.03
2022-08-02T18:04:27.365Z,5.30
2022-08-02T18:06:58.663Z,6.28
2022-08-02T18:09:28.950Z,4.82
2022-08-02T18:11:58.828Z,4.53
2022-08-02T18:14:27.074Z,5.20
2022-08-02T18:16:55.761Z,5.00
2022-08-02T18:19:42.189Z,6.90
2022-08-02T18:22:11.526Z,16.48
2022-08-02T18:24:41.781Z,12.63
2022-08-02T18:27:14.221Z,18.33
2022-08-02T18:29:42.494Z,28.75
2022-08-02T18:32:11.781Z,23.60
2022-08-02T18:34:40.476Z,23.30
2022-08-02T18:37:12.826Z,21.27
2022-08-02T18:39:42.699Z,21.23
2022-08-02T18:42:19.783Z,19.45
2022-08-02T18:44:48.486Z,16.63
2022-08-02T18:47:16.782Z,16.45
2022-08-02T18:49:46.509Z,15.23
2022-08-02T18:52:27.455Z,14.27
2022-08-02T18:55:01.402Z,13.90
2022-08-02T18:58:16.770Z,11.63
2022-08-02T19:00:20.628Z,11.45
2022-08-02T19:02:54.123Z,11.35
2022-08-02T19:05:24.246Z,11.35
2022-08-02T19:08:13.017Z,9.13
2022-08-02T19:10:49.218Z,9.23
2022-08-02T19:13:18.495Z,8.68
2022-08-02T19:15:47.811Z,7.82
2022-08-02T19:18:16.394Z,8.02
2022-08-02T19:20:48.065Z,7.22
2022-08-02T19:23:17.017Z,7.40
2022-08-02T19:28:35.331Z,6.55
2022-08-02T19:31:04.583Z,7.05
2022-08-02T19:34:06.138Z,6.40
2022-08-02T19:36:21.178Z,6.75
2022-08-02T19:38:55.577Z,5.93
2022-08-02T19:41:26.733Z,6.20
2022-08-02T19:44:24.877Z,5.68
2022-08-02T19:46:43.369Z,5.45
2022-08-02T19:49:39.245Z,5.47
2022-08-02T19:52:20.328Z,5.00
2022-08-02T19:54:55.174Z,4.85
2022-08-02T19:57:26.557Z,5.10
2022-08-02T19:59:56.914Z,4.80
2022-08-02T20:02:26.287Z,5.45
2022-08-02T20:04:56.448Z,5.57
2022-08-02T20:07:53.416Z,5.22
2022-08-02T20:10:15.732Z,4.57
2022-08-02T20:12:55.216Z,4.80
2022-08-02T20:15:23.966Z,4.68
2022-08-02T20:18:12.224Z,5.05
2022-08-02T20:20:44.242Z,4.97
2022-08-02T20:23:32.391Z,5.18
2022-08-02T20:26:02.516Z,5.63
2022-08-02T20:28:32.311Z,5.50
2022-08-02T20:31:07.186Z,5.30
2022-08-02T20:36:26.665Z,5.43
2022-08-02T20:38:55.427Z,4.80
2022-08-02T20:41:36.901Z,5.25
2022-08-02T20:44:16.134Z,4.63
2022-08-02T20:47:01.982Z,4.60
2022-08-02T20:49:40.671Z,4.63
2022-08-02T20:52:23.284Z,4.43
2022-08-02T20:54:52.773Z,4.22
2022-08-02T20:57:48.515Z,5.00
2022-08-02T21:00:12.934Z,4.53
2022-08-02T21:02:42.606Z,4.50
2022-08-02T21:08:02.290Z,4.45
2022-08-02T21:10:32.118Z,4.32
2022-08-02T21:13:01.186Z,4.90
2022-08-02T21:18:21.051Z,4.63
2022-08-02T21:20:56.973Z,4.43
2022-08-02T21:23:25.403Z,4.13
2022-08-02T21:25:56.811Z,4.70
2022-08-02T21:28:43.660Z,4.35
2022-08-02T21:31:16.056Z,4.80
2022-08-02T21:33:56.949Z,4.45
2022-08-02T21:39:16.599Z,3.92
2022-08-02T21:41:47.093Z,4.55
2022-08-02T21:44:16.640Z,4.63
2022-08-02T21:46:49.349Z,4.65
2022-08-02T21:49:18.664Z,4.28
2022-08-02T21:51:50.025Z,5.38
2022-08-02T21:54:21.223Z,3.85
2022-08-02T21:56:52.055Z,4.30
2022-08-02T21:59:25.848Z,4.15
2022-08-02T22:01:56.962Z,3.80
2022-08-02T22:04:25.994Z,4.20
2022-08-02T22:06:54.907Z,4.28
2022-08-02T22:09:44.176Z,3.80
2022-08-02T22:12:17.625Z,4.20
2022-08-02T22:14:54.823Z,4.07
2022-08-02T22:17:50.429Z,4.35
2022-08-02T22:20:18.261Z,4.85
2022-08-02T22:22:50.175Z,4.68
2022-08-02T22:25:26.488Z,4.40
2022-08-02T22:28:35.303Z,4.50
2022-08-02T22:30:56.857Z,5.03
2022-08-02T22:33:47.026Z,4.63
2022-08-02T22:36:29.233Z,5.28
2022-08-02T22:38:57.562Z,4.55
2022-08-02T22:41:25.844Z,4.20
2022-08-02T22:44:14.793Z,5.30
2022-08-02T22:46:45.124Z,4.75
2022-08-02T22:49:36.032Z,4.20
2022-08-02T22:52:04.209Z,5.20
2022-08-02T22:54:33.947Z,5.22
2022-08-02T22:57:02.253Z,5.03
2022-08-02T22:58:59.844Z,7.22
2022-08-02T22:59:03.125Z,4.00
2022-08-02T22:59:05.447Z,5.25
2022-08-02T22:59:07.697Z,5.07
2022-08-02T22:59:38.985Z,5.05
2022-08-02T23:02:08.667Z,4.78
2022-08-02T23:04:39.067Z,4.80
2022-08-02T23:07:07.480Z,5.00
2022-08-02T23:09:35.812Z,5.15
2022-08-02T23:12:04.303Z,4.80
2022-08-02T23:14:32.560Z,4.93
2022-08-02T23:17:33.058Z,4.78
2022-08-02T23:20:03.227Z,5.00
2022-08-02T23:22:32.476Z,8.85
2022-08-02T23:25:02.028Z,5.18
2022-08-02T23:27:30.697Z,6.10
2022-08-02T23:29:59.333Z,5.63
2022-08-02T23:32:28.302Z,5.63
2022-08-02T23:34:57.380Z,6.70
2022-08-02T23:37:28.286Z,7.35
2022-08-02T23:40:16.555Z,7.93
2022-08-02T23:43:13.932Z,9.40
2022-08-02T23:45:45.198Z,7.05
2022-08-02T23:48:13.776Z,7.25
2022-08-02T23:50:42.054Z,7.85
2022-08-02T23:53:11.754Z,7.10
2022-08-02T23:55:40.157Z,7.07
2022-08-02T23:58:08.389Z,6.80
